Hauptseite
METAR-TAF:

METAR-TAF

Flughäfen :

City-Airport Mannheim

Mannheim, Deutschland

Breite: 49-28-21N, Länge: 008-30-56E, Höhe: 100 m

Beobachtung

Neuester Wetterbericht von vor 41 Minuten, um 14:20 UTC
Wind 7 kt aus Nord/Nordwest, variierte zwischen West und Nord/Nordost
Temperatur 22°C
Luftfeuchtigkeit 33%
Luftdruck 1023 hPa
Sichtweite 10 km oder mehr
keine Wolken unter 1500 m und keine Kumulonimbus oder Gewitterwolken

METAR: EDFM 111420Z 33007KT 270V020 CAVOK 22/05 Q1023

Zeit: 17:01 (15:01 UTC)

Prognose

Neuester Wetterbericht von vor 1 Stunde und 1 Minuten, um 14:00 UTC
Gültige Prognose vom 11 um 15 UTC bis 11 um 21 UTC
Wind 5 kt aus Nord
Sichtweite 10 km oder mehr
keine Wolken unter 1500 m und keine Kumulonimbus oder Gewitterwolken

TAF: EDFM 111400Z 1115/1121 35005KT CAVOK

Wetterbeobachtungen und Prognosen von mehr als 4000 Flughäfen (METAR und TAF Bericht).

Die verfügbaren Stationen werden durch gelbe und rote Markierungen auf der Karte dargestellt.

Führen Sie die Maus auf sie, um den Namen der Station zu sehen.

Darauf klicken, um die Beobachtung von Wetterbeobachtungen und Prognosen zu sehen.

Um die Karte zu ändern : klicken Sie auf den grünen Tasten mit einem schwarzen Kreuz Zum Vergrößern, auf den grünen Button mit einem Gedankenstrich zu verkleinern, oder auf die grünen Pfeile für benachbarte Karten.


METAR-TAF: